createdAt,value
2018-12-18T00:00:54.970Z,27.37
2018-12-18T00:02:58.870Z,26.02
2018-12-18T00:05:06.801Z,28.25
2018-12-18T00:07:10.311Z,26.25
2018-12-18T00:09:14.218Z,28.55
2018-12-18T00:11:17.779Z,27.13
2018-12-18T00:13:20.990Z,27.58
2018-12-18T00:15:24.201Z,28.60
2018-12-18T00:17:27.419Z,28.70
2018-12-18T00:19:31.015Z,27.48
2018-12-18T00:21:34.542Z,28.90
2018-12-18T00:23:37.818Z,28.30
2018-12-18T00:25:41.414Z,27.93
2018-12-18T00:27:44.891Z,28.80
2018-12-18T00:29:48.127Z,29.90
2018-12-18T00:31:51.735Z,30.80
2018-12-18T00:33:55.211Z,29.67
2018-12-18T00:35:58.878Z,30.08
2018-12-18T00:38:02.370Z,29.60
2018-12-18T00:40:07.305Z,29.50
2018-12-18T00:42:10.911Z,29.70
2018-12-18T00:44:14.407Z,28.40
2018-12-18T00:46:17.850Z,30.68
2018-12-18T00:48:21.200Z,27.50
2018-12-18T00:50:24.522Z,29.50
2018-12-18T00:52:28.017Z,30.35
2018-12-18T00:54:31.972Z,29.85
2018-12-18T00:56:35.930Z,29.40
2018-12-18T00:58:39.414Z,28.20
2018-12-18T01:00:42.924Z,28.62
2018-12-18T01:02:46.479Z,28.62
2018-12-18T01:04:51.191Z,29.67
2018-12-18T01:06:55.614Z,26.05
2018-12-18T01:08:59.133Z,27.10
2018-12-18T01:11:03.732Z,29.23
2018-12-18T01:13:07.634Z,28.85
2018-12-18T01:15:11.270Z,29.23
2018-12-18T01:17:14.796Z,32.50
2018-12-18T01:19:18.024Z,31.50
2018-12-18T01:21:21.847Z,32.20
2018-12-18T01:23:25.866Z,29.37
2018-12-18T01:25:30.199Z,31.05
2018-12-18T01:27:33.722Z,34.25
2018-12-18T01:29:36.935Z,28.83
2018-12-18T01:31:40.454Z,27.65
2018-12-18T01:33:43.955Z,23.65
2018-12-18T01:35:47.957Z,31.23
2018-12-18T01:37:51.461Z,30.40
2018-12-18T01:39:54.938Z,29.63
2018-12-18T01:41:58.439Z,30.23
2018-12-18T01:44:02.550Z,30.95
2018-12-18T01:46:06.046Z,29.93
2018-12-18T01:48:09.619Z,27.20
2018-12-18T01:50:13.735Z,29.45
2018-12-18T01:52:17.246Z,31.50
2018-12-18T01:54:20.453Z,29.93
2018-12-18T01:56:23.743Z,32.63
2018-12-18T01:58:27.679Z,33.02
2018-12-18T02:00:31.330Z,33.33
2018-12-18T02:02:34.946Z,32.25
2018-12-18T02:04:38.176Z,32.83
2018-12-18T02:06:41.912Z,26.30
2018-12-18T02:08:45.587Z,30.92
2018-12-18T02:10:49.507Z,27.85
2018-12-18T02:12:52.721Z,29.30
2018-12-18T02:14:56.362Z,33.20
2018-12-18T02:16:59.865Z,29.63
2018-12-18T02:19:03.079Z,28.53
2018-12-18T02:21:07.194Z,31.62
2018-12-18T02:23:10.694Z,29.95
2018-12-18T02:25:15.555Z,30.25
2018-12-18T02:27:19.082Z,31.00
2018-12-18T02:29:22.574Z,30.15
2018-12-18T02:31:26.126Z,31.47
2018-12-18T02:33:30.011Z,30.55
2018-12-18T02:35:33.968Z,32.48
2018-12-18T02:37:37.248Z,29.60
2018-12-18T02:39:40.711Z,31.42
2018-12-18T02:41:44.231Z,30.10
2018-12-18T02:43:47.462Z,29.07
2018-12-18T02:45:51.184Z,30.27
2018-12-18T02:47:55.095Z,29.67
2018-12-18T02:49:58.563Z,30.95
2018-12-18T02:52:02.702Z,26.95
2018-12-18T02:54:06.237Z,31.55
2018-12-18T02:56:09.742Z,28.60
2018-12-18T02:58:13.540Z,30.52
2018-12-18T03:00:17.461Z,32.78
2018-12-18T03:02:21.335Z,28.53
2018-12-18T03:04:24.857Z,24.55
2018-12-18T03:06:28.350Z,27.55
2018-12-18T03:08:32.244Z,25.70
2018-12-18T03:10:35.854Z,27.73
2018-12-18T03:12:39.474Z,30.00
2018-12-18T03:14:43.390Z,30.32
2018-12-18T03:16:46.649Z,27.97
2018-12-18T03:18:50.459Z,28.20
2018-12-18T03:20:54.071Z,28.95
2018-12-18T03:22:57.798Z,29.72
2018-12-18T03:25:01.872Z,30.05
2018-12-18T03:27:06.430Z,29.48
2018-12-18T03:29:09.905Z,28.62
2018-12-18T03:31:13.452Z,28.07
2018-12-18T03:33:16.662Z,27.23
2018-12-18T03:35:20.169Z,29.05
2018-12-18T03:37:23.822Z,27.90
2018-12-18T03:39:27.011Z,30.03
2018-12-18T03:41:30.974Z,28.10
2018-12-18T03:43:34.648Z,31.40
2018-12-18T03:45:38.119Z,28.40
2018-12-18T03:47:41.319Z,29.92
2018-12-18T03:49:45.118Z,30.92
2018-12-18T03:51:48.618Z,30.05
2018-12-18T03:53:52.163Z,24.27
2018-12-18T03:55:56.490Z,29.27
2018-12-18T03:58:00.575Z,28.75
2018-12-18T04:00:08.220Z,26.00
2018-12-18T04:02:11.726Z,27.17
2018-12-18T04:04:15.645Z,27.98
2018-12-18T04:06:19.847Z,28.38
2018-12-18T04:08:23.378Z,20.77
2018-12-18T04:10:26.546Z,27.67
2018-12-18T04:12:29.776Z,26.42
2018-12-18T04:14:32.996Z,29.07
2018-12-18T04:16:36.234Z,24.07
2018-12-18T04:18:39.786Z,25.57
2018-12-18T04:20:43.363Z,24.98
2018-12-18T04:22:47.181Z,29.63
2018-12-18T04:24:51.162Z,28.10
2018-12-18T04:26:54.683Z,27.62
2018-12-18T04:28:58.238Z,27.97
2018-12-18T04:31:01.711Z,26.07
2018-12-18T04:33:05.206Z,29.20
2018-12-18T04:35:08.678Z,26.68
2018-12-18T04:37:12.401Z,27.77
2018-12-18T04:39:16.529Z,28.47
2018-12-18T04:41:20.419Z,26.17
2018-12-18T04:43:23.752Z,24.02
2018-12-18T04:45:26.998Z,24.80
2018-12-18T04:47:30.485Z,26.02
2018-12-18T04:49:33.969Z,20.77
2018-12-18T04:51:37.818Z,23.30
2018-12-18T04:53:41.710Z,20.92
2018-12-18T04:55:45.193Z,26.82
2018-12-18T04:57:48.763Z,29.40
2018-12-18T04:59:52.259Z,24.20
2018-12-18T05:01:55.744Z,28.47
2018-12-18T05:03:59.535Z,23.87
2018-12-18T05:06:03.388Z,23.50
2018-12-18T05:08:06.854Z,26.68
2018-12-18T05:10:10.410Z,26.23
2018-12-18T05:12:13.937Z,24.92
2018-12-18T05:14:17.449Z,27.00
2018-12-18T05:16:21.926Z,26.12
2018-12-18T05:18:25.686Z,23.38
2018-12-18T05:20:29.171Z,26.77
2018-12-18T05:22:32.683Z,21.77
2018-12-18T05:24:36.279Z,27.37
2018-12-18T05:26:39.780Z,22.82
2018-12-18T05:28:43.293Z,27.15
2018-12-18T05:30:46.538Z,23.50
2018-12-18T05:32:50.255Z,25.70
2018-12-18T05:34:56.528Z,25.70
2018-12-18T05:36:59.298Z,25.87
2018-12-18T05:39:02.816Z,22.87
2018-12-18T05:41:06.094Z,23.23
2018-12-18T05:43:09.698Z,21.42
2018-12-18T05:45:13.290Z,23.42
2018-12-18T05:47:16.710Z,22.40
2018-12-18T05:49:20.368Z,22.75
2018-12-18T05:51:23.554Z,26.60
2018-12-18T05:53:26.977Z,24.60
2018-12-18T05:55:30.467Z,22.62
2018-12-18T05:57:34.235Z,24.98
2018-12-18T05:59:37.752Z,20.68
2018-12-18T06:01:41.235Z,24.47
2018-12-18T06:03:44.456Z,24.27
2018-12-18T06:05:47.981Z,22.82
2018-12-18T06:07:51.477Z,23.77
2018-12-18T06:09:55.288Z,24.92
2018-12-18T06:11:58.795Z,22.13
2018-12-18T06:14:02.342Z,24.53
2018-12-18T06:16:05.834Z,23.67
2018-12-18T06:18:09.069Z,22.45
2018-12-18T06:20:13.297Z,24.10
2018-12-18T06:22:16.560Z,21.77
2018-12-18T06:24:20.043Z,20.12
2018-12-18T06:26:23.545Z,22.98
2018-12-18T06:28:27.334Z,20.20
2018-12-18T06:30:30.794Z,22.98
2018-12-18T06:32:34.998Z,19.55
2018-12-18T06:34:38.482Z,24.20
2018-12-18T06:36:41.957Z,23.47
2018-12-18T06:38:45.453Z,23.50
2018-12-18T06:40:48.931Z,23.20
2018-12-18T06:42:53.317Z,23.42
2018-12-18T06:44:56.882Z,22.77
2018-12-18T06:47:00.718Z,22.82
2018-12-18T06:49:03.934Z,22.52
2018-12-18T06:51:07.815Z,23.90
2018-12-18T06:53:11.432Z,22.42
2018-12-18T06:55:15.374Z,22.48
2018-12-18T06:57:19.036Z,21.10
2018-12-18T06:59:22.556Z,21.35
2018-12-18T07:01:25.807Z,22.20
2018-12-18T07:03:29.110Z,18.77
2018-12-18T07:05:32.846Z,22.02
2018-12-18T07:07:36.482Z,20.23
2018-12-18T07:09:40.078Z,21.48
2018-12-18T07:11:43.711Z,21.07
2018-12-18T07:13:47.230Z,21.33
2018-12-18T07:15:50.770Z,21.52
2018-12-18T07:17:54.301Z,24.10
2018-12-18T07:19:57.846Z,23.32
2018-12-18T07:22:01.120Z,22.50
2018-12-18T07:24:05.302Z,22.27
2018-12-18T07:26:08.782Z,22.65
2018-12-18T07:28:12.296Z,22.42
2018-12-18T07:30:15.556Z,24.35
2018-12-18T07:32:18.802Z,25.47
2018-12-18T07:34:22.310Z,23.92
2018-12-18T07:36:26.034Z,24.80
2018-12-18T07:38:29.518Z,24.07
2018-12-18T07:40:33.050Z,24.35
2018-12-18T07:42:36.293Z,26.20
2018-12-18T07:44:40.127Z,24.02
2018-12-18T07:46:43.602Z,24.90
2018-12-18T07:48:47.499Z,23.97
2018-12-18T07:50:51.462Z,23.70
2018-12-18T07:54:39.834Z,24.82
2018-12-18T07:56:43.290Z,25.52
2018-12-18T07:58:46.480Z,25.47
2018-12-18T08:00:50.050Z,25.17
2018-12-18T08:02:53.499Z,23.57
2018-12-18T08:04:56.754Z,23.90
2018-12-18T08:07:00.266Z,24.47
2018-12-18T08:09:06.438Z,23.87
2018-12-18T08:11:09.909Z,22.52
2018-12-18T08:13:13.643Z,23.70
2018-12-18T08:15:17.141Z,22.82
2018-12-18T08:17:20.630Z,23.60
2018-12-18T08:19:24.256Z,22.80
2018-12-18T08:21:27.722Z,22.40
2018-12-18T08:23:30.897Z,21.73
2018-12-18T08:25:34.136Z,20.32
2018-12-18T08:27:37.365Z,20.93
2018-12-18T08:29:41.238Z,21.02
2018-12-18T08:31:44.463Z,20.72
2018-12-18T08:33:48.310Z,19.60
2018-12-18T08:35:51.775Z,21.15
2018-12-18T08:37:55.074Z,18.83
2018-12-18T08:39:58.554Z,19.60
2018-12-18T08:42:02.059Z,19.00
2018-12-18T08:44:05.850Z,19.20
2018-12-18T08:46:10.371Z,19.70
2018-12-18T08:48:14.617Z,19.92
2018-12-18T08:50:17.827Z,20.23
2018-12-18T08:52:21.466Z,19.33
2018-12-18T08:54:24.921Z,19.30
2018-12-18T08:56:28.211Z,19.23
2018-12-18T08:58:31.414Z,16.70
2018-12-18T09:00:35.046Z,17.67
2018-12-18T09:02:39.075Z,18.17
2018-12-18T09:04:42.568Z,18.17
2018-12-18T09:06:45.766Z,17.48
2018-12-18T09:08:49.595Z,17.53
2018-12-18T09:10:53.061Z,17.42
2018-12-18T09:12:56.230Z,16.73
2018-12-18T09:15:01.471Z,16.57
2018-12-18T09:17:07.538Z,15.75
2018-12-18T09:19:11.318Z,14.85
2018-12-18T09:21:15.317Z,17.10
2018-12-18T09:23:18.830Z,16.60
2018-12-18T09:25:22.815Z,16.77
2018-12-18T09:27:26.061Z,16.77
2018-12-18T09:29:29.362Z,15.68
2018-12-18T09:31:32.832Z,15.65
2018-12-18T09:33:36.648Z,15.10
2018-12-18T09:35:40.998Z,17.00
2018-12-18T09:37:44.814Z,17.45
2018-12-18T09:39:48.104Z,15.77
2018-12-18T09:41:56.246Z,18.23
2018-12-18T09:44:04.998Z,19.57
2018-12-18T09:46:08.783Z,18.80
2018-12-18T09:48:12.255Z,19.75
2018-12-18T09:50:15.426Z,19.40
2018-12-18T09:52:18.638Z,20.72
2018-12-18T09:54:22.812Z,19.90
2018-12-18T09:56:26.090Z,20.70
2018-12-18T09:58:30.013Z,19.67
2018-12-18T10:00:34.118Z,19.55
2018-12-18T10:02:37.302Z,21.02
2018-12-18T10:04:41.357Z,19.73
2018-12-18T10:06:45.162Z,18.80
2018-12-18T10:08:48.975Z,18.57
2018-12-18T10:10:52.496Z,21.00
2018-12-18T10:12:56.849Z,20.85
2018-12-18T10:15:00.698Z,20.52
2018-12-18T10:17:04.184Z,20.00
2018-12-18T10:19:07.380Z,20.30
2018-12-18T10:21:10.978Z,20.80
2018-12-18T10:23:14.957Z,20.17
2018-12-18T10:25:18.587Z,20.20
2018-12-18T10:27:22.060Z,21.12
2018-12-18T10:29:25.555Z,21.37
2018-12-18T10:31:29.067Z,21.90
2018-12-18T10:33:32.536Z,21.97
2018-12-18T10:35:36.739Z,22.82
2018-12-18T10:37:41.393Z,22.10
2018-12-18T10:39:45.288Z,24.30
2018-12-18T10:41:49.697Z,22.70
2018-12-18T10:43:53.183Z,22.80
2018-12-18T10:45:57.098Z,21.65
2018-12-18T10:48:01.298Z,23.52
2018-12-18T10:50:05.216Z,22.52
2018-12-18T10:52:09.097Z,22.87
2018-12-18T10:54:12.450Z,24.40
2018-12-18T10:56:16.378Z,22.82
2018-12-18T10:58:23.926Z,23.42
2018-12-18T11:00:31.576Z,23.22
2018-12-18T11:02:35.107Z,23.83
2018-12-18T11:04:38.645Z,24.07
2018-12-18T11:06:42.542Z,24.60
2018-12-18T11:08:46.409Z,23.60
2018-12-18T11:10:49.588Z,23.10
2018-12-18T11:12:58.386Z,25.60
2018-12-18T11:15:01.873Z,21.53
2018-12-18T11:17:05.974Z,24.15
2018-12-18T11:19:09.178Z,23.90
2018-12-18T11:21:12.766Z,24.17
2018-12-18T11:23:16.214Z,23.52
2018-12-18T11:25:19.413Z,24.05
2018-12-18T11:27:22.938Z,24.90
2018-12-18T11:29:26.421Z,24.18
2018-12-18T11:31:29.964Z,25.30
2018-12-18T11:33:33.146Z,24.67
2018-12-18T11:35:36.341Z,26.00
2018-12-18T11:37:39.834Z,23.90
2018-12-18T11:39:43.298Z,25.17
2018-12-18T11:41:46.770Z,24.20
2018-12-18T11:43:50.288Z,24.10
2018-12-18T11:45:54.190Z,24.63
2018-12-18T11:47:57.893Z,24.18
2018-12-18T11:50:01.528Z,23.65
2018-12-18T11:52:05.219Z,24.57
2018-12-18T11:54:08.630Z,23.93
2018-12-18T11:56:12.096Z,25.63
2018-12-18T11:58:15.599Z,25.27
2018-12-18T12:00:19.807Z,24.30
2018-12-18T12:02:23.290Z,25.70
2018-12-18T12:04:26.806Z,25.40
2018-12-18T12:06:37.098Z,25.15
2018-12-18T12:08:41.086Z,25.97
2018-12-18T12:10:44.562Z,24.15
2018-12-18T12:12:48.026Z,25.00
2018-12-18T12:14:52.552Z,26.33
2018-12-18T12:16:55.987Z,24.90
2018-12-18T12:18:59.475Z,25.77
2018-12-18T12:21:02.934Z,23.33
2018-12-18T12:23:06.410Z,24.43
2018-12-18T12:25:10.663Z,24.90
2018-12-18T12:27:19.578Z,24.55
2018-12-18T12:29:23.045Z,23.60
2018-12-18T12:31:26.236Z,24.60
2018-12-18T12:33:29.459Z,24.25
2018-12-18T12:35:32.641Z,24.72
2018-12-18T12:37:35.835Z,23.10
2018-12-18T12:39:39.103Z,22.73
2018-12-18T12:41:42.619Z,20.88
2018-12-18T12:43:46.086Z,21.60
2018-12-18T12:45:49.278Z,21.30
2018-12-18T12:47:53.328Z,21.40
2018-12-18T12:49:56.778Z,16.10
2018-12-18T12:51:59.986Z,23.30
2018-12-18T12:54:03.184Z,22.37
2018-12-18T12:56:06.671Z,21.77
2018-12-18T12:58:10.266Z,21.20
2018-12-18T13:00:13.510Z,20.37
2018-12-18T13:02:16.740Z,17.10
2018-12-18T13:04:19.955Z,19.00
2018-12-18T13:06:24.126Z,19.90
2018-12-18T13:08:27.606Z,19.67
2018-12-18T13:10:31.451Z,18.92
2018-12-18T13:12:34.959Z,18.80
2018-12-18T13:14:38.487Z,17.80
2018-12-18T13:16:41.782Z,18.00
2018-12-18T13:18:44.971Z,17.27
2018-12-18T13:20:48.590Z,16.60
2018-12-18T13:22:52.188Z,17.30
2018-12-18T13:24:55.442Z,17.47
2018-12-18T13:26:58.650Z,17.37
2018-12-18T13:29:02.778Z,16.50
2018-12-18T13:31:06.246Z,17.32
2018-12-18T13:33:09.711Z,16.05
2018-12-18T13:35:13.703Z,16.97
2018-12-18T13:37:17.328Z,17.05
2018-12-18T13:39:26.618Z,17.20
2018-12-18T13:41:31.242Z,16.20
2018-12-18T13:43:34.838Z,17.05
2018-12-18T13:45:38.146Z,17.43
2018-12-18T13:47:41.835Z,17.25
2018-12-18T13:49:45.062Z,16.87
2018-12-18T13:51:48.328Z,16.25
2018-12-18T13:53:51.650Z,14.50
2018-12-18T13:55:55.187Z,14.93
2018-12-18T13:57:58.918Z,15.48
2018-12-18T14:00:02.767Z,16.23
2018-12-18T14:02:06.398Z,15.53
2018-12-18T14:04:09.987Z,17.12
2018-12-18T14:06:13.535Z,18.60
2018-12-18T14:08:17.161Z,17.57
2018-12-18T14:10:21.472Z,16.40
2018-12-18T14:12:24.961Z,17.77
2018-12-18T14:14:28.451Z,17.02
2018-12-18T14:16:31.961Z,18.00
2018-12-18T14:18:35.166Z,16.95
2018-12-18T14:20:38.563Z,16.15
2018-12-18T14:22:42.700Z,15.80
2018-12-18T14:24:45.943Z,15.80
2018-12-18T14:26:49.536Z,15.35
2018-12-18T14:28:53.348Z,15.30
2018-12-18T14:30:56.991Z,14.83
2018-12-18T14:33:00.374Z,15.30
2018-12-18T14:35:04.651Z,15.20
2018-12-18T14:37:08.467Z,14.47
2018-12-18T14:39:13.818Z,14.23
2018-12-18T14:41:17.492Z,14.90
2018-12-18T14:43:21.043Z,12.03
2018-12-18T14:45:25.863Z,12.10
2018-12-18T14:47:29.707Z,11.08
2018-12-18T14:49:33.360Z,11.88
2018-12-18T14:51:36.596Z,10.70
2018-12-18T14:53:40.142Z,11.55
2018-12-18T14:55:44.357Z,10.45
2018-12-18T14:57:48.067Z,10.80
2018-12-18T14:59:53.033Z,10.18
2018-12-18T15:01:57.268Z,10.63
2018-12-18T15:04:01.750Z,9.60
2018-12-18T15:06:06.278Z,10.13
2018-12-18T15:08:10.488Z,9.70
2018-12-18T15:10:14.212Z,9.50
2018-12-18T15:12:18.605Z,9.30
2018-12-18T15:14:22.790Z,9.10
2018-12-18T15:16:26.635Z,9.35
2018-12-18T15:18:30.312Z,9.50
2018-12-18T15:20:34.141Z,9.75
2018-12-18T15:22:37.385Z,10.08
2018-12-18T15:24:40.806Z,10.03
2018-12-18T15:26:44.567Z,10.13
2018-12-18T15:28:48.336Z,9.65
2018-12-18T15:30:51.838Z,11.18
2018-12-18T15:32:55.506Z,11.55
2018-12-18T15:34:59.527Z,11.30
2018-12-18T15:37:09.362Z,10.90
2018-12-18T15:39:09.220Z,11.40
2018-12-18T15:41:12.898Z,11.10
2018-12-18T15:43:16.599Z,12.40
2018-12-18T15:45:19.889Z,11.90
2018-12-18T15:47:23.770Z,10.80
2018-12-18T15:49:27.425Z,10.00
2018-12-18T15:51:31.245Z,10.30
2018-12-18T15:53:34.544Z,9.50
2018-12-18T15:55:38.998Z,9.30
2018-12-18T15:57:42.693Z,9.25
2018-12-18T15:59:46.668Z,9.30
2018-12-18T16:01:51.399Z,9.00
2018-12-18T16:03:55.116Z,9.00
2018-12-18T16:05:58.696Z,9.20
2018-12-18T16:08:02.533Z,9.90
2018-12-18T16:10:07.519Z,8.98
2018-12-18T16:12:10.881Z,9.57
2018-12-18T16:14:15.542Z,9.15
2018-12-18T16:16:19.195Z,9.98
2018-12-18T16:18:23.434Z,9.63
2018-12-18T16:20:27.167Z,9.23
2018-12-18T16:22:30.433Z,8.87
2018-12-18T16:24:34.031Z,8.50
2018-12-18T16:26:38.773Z,8.23
2018-12-18T16:28:42.416Z,8.18
2018-12-18T16:30:46.505Z,8.00
2018-12-18T16:32:50.231Z,8.18
2018-12-18T16:34:54.179Z,8.03
2018-12-18T16:36:58.767Z,7.97
2018-12-18T16:39:03.061Z,8.50
2018-12-18T16:41:06.712Z,7.90
2018-12-18T16:43:11.106Z,7.62
2018-12-18T16:45:14.663Z,7.92
2018-12-18T16:47:18.647Z,8.80
2018-12-18T16:49:22.270Z,7.78
2018-12-18T16:51:25.855Z,7.70
2018-12-18T16:53:30.999Z,7.40
2018-12-18T16:55:34.236Z,8.15
2018-12-18T16:57:37.658Z,8.03
2018-12-18T16:59:41.259Z,8.05
2018-12-18T17:01:45.081Z,7.80
2018-12-18T17:03:48.867Z,7.62
2018-12-18T17:05:52.500Z,8.77
2018-12-18T17:07:56.059Z,8.05
2018-12-18T17:09:59.381Z,8.60
2018-12-18T17:12:03.521Z,9.23
2018-12-18T17:14:07.086Z,8.28
2018-12-18T17:16:10.716Z,8.40
2018-12-18T17:18:14.249Z,9.10
2018-12-18T17:20:18.130Z,7.92
2018-12-18T17:22:21.886Z,8.90
2018-12-18T17:24:25.853Z,8.90
2018-12-18T17:26:29.944Z,8.33
2018-12-18T17:28:38.667Z,8.75
2018-12-18T17:30:42.073Z,10.80
2018-12-18T17:32:45.790Z,9.60
2018-12-18T17:34:49.292Z,9.00
2018-12-18T17:36:52.511Z,12.98
2018-12-18T17:38:55.743Z,12.97
2018-12-18T17:40:59.846Z,9.10
2018-12-18T17:43:03.858Z,9.68
2018-12-18T17:45:08.635Z,9.37
2018-12-18T17:47:16.552Z,8.43
2018-12-18T17:49:19.938Z,8.18
2018-12-18T17:51:23.627Z,8.43
2018-12-18T17:53:27.581Z,7.97
2018-12-18T17:55:31.438Z,8.30
2018-12-18T17:57:34.662Z,9.10
2018-12-18T17:59:38.195Z,8.63
2018-12-18T18:01:41.719Z,8.95
2018-12-18T18:03:44.963Z,9.60
2018-12-18T18:05:49.087Z,9.10
2018-12-18T18:07:52.716Z,8.25
2018-12-18T18:09:56.306Z,8.50
2018-12-18T18:11:59.934Z,8.90
2018-12-18T18:14:03.986Z,9.03
2018-12-18T18:16:07.675Z,9.20
2018-12-18T18:18:11.204Z,9.20
2018-12-18T18:20:15.321Z,8.20
2018-12-18T18:22:19.051Z,8.43
2018-12-18T18:24:22.991Z,8.90
2018-12-18T18:26:27.581Z,8.83
2018-12-18T18:28:31.587Z,8.73
2018-12-18T18:30:35.063Z,8.50
2018-12-18T18:32:38.348Z,8.38
2018-12-18T18:34:41.554Z,8.13
2018-12-18T18:36:45.178Z,8.23
2018-12-18T18:38:48.686Z,7.85
2018-12-18T18:40:51.982Z,7.60
2018-12-18T18:42:57.561Z,8.30
2018-12-18T18:45:02.564Z,8.40
2018-12-18T18:47:06.669Z,8.30
2018-12-18T18:49:10.658Z,8.38
2018-12-18T18:51:15.567Z,9.35
2018-12-18T18:53:20.452Z,8.75
2018-12-18T18:55:24.432Z,9.03
2018-12-18T18:57:28.002Z,9.23
2018-12-18T18:59:32.420Z,9.20
2018-12-18T19:01:36.609Z,10.00
2018-12-18T19:03:41.784Z,8.90
2018-12-18T19:05:46.688Z,9.20
2018-12-18T19:07:56.262Z,8.60
2018-12-18T19:09:55.937Z,8.83
2018-12-18T19:12:01.057Z,8.98
2018-12-18T19:14:06.251Z,9.27
2018-12-18T19:16:12.555Z,8.40
2018-12-18T19:18:17.342Z,8.78
2018-12-18T19:20:21.968Z,8.40
2018-12-18T19:22:25.850Z,9.13
2018-12-18T19:24:29.582Z,8.90
2018-12-18T19:26:34.589Z,8.50
2018-12-18T19:28:38.626Z,8.90
2018-12-18T19:33:03.951Z,8.70
2018-12-18T19:35:08.199Z,8.98
2018-12-18T19:37:12.080Z,8.15
2018-12-18T19:39:16.749Z,8.90
2018-12-18T19:41:21.979Z,8.38
2018-12-18T19:43:27.746Z,8.90
2018-12-18T19:45:32.447Z,9.20
2018-12-18T19:47:38.430Z,9.58
2018-12-18T19:49:42.499Z,9.15
2018-12-18T19:51:46.945Z,8.83
2018-12-18T19:53:51.558Z,8.73
2018-12-18T19:55:56.479Z,9.30
2018-12-18T19:58:01.039Z,9.30
2018-12-18T20:00:06.269Z,9.43
2018-12-18T20:02:09.988Z,9.28
2018-12-18T20:04:14.494Z,9.48
2018-12-18T20:06:18.627Z,9.33
2018-12-18T20:08:41.052Z,9.23
2018-12-18T20:10:44.531Z,9.13
2018-12-18T20:12:47.978Z,9.38
2018-12-18T20:14:51.230Z,11.00
2018-12-18T20:16:55.515Z,10.10
2018-12-18T20:19:01.026Z,9.85
2018-12-18T20:21:04.766Z,9.58
2018-12-18T20:23:08.830Z,10.30
2018-12-18T20:25:13.698Z,9.45
2018-12-18T20:27:19.450Z,9.40
2018-12-18T20:29:23.650Z,10.57
2018-12-18T20:31:28.895Z,9.28
2018-12-18T20:33:33.950Z,10.38
2018-12-18T20:35:38.072Z,10.85
2018-12-18T20:37:43.228Z,9.90
2018-12-18T20:39:48.009Z,10.50
2018-12-18T20:41:52.496Z,11.30
2018-12-18T20:43:56.160Z,11.03
2018-12-18T20:46:00.332Z,11.68
2018-12-18T20:48:04.266Z,12.20
2018-12-18T20:50:08.878Z,11.50
2018-12-18T20:52:12.826Z,12.15
2018-12-18T20:54:16.351Z,12.88
2018-12-18T20:56:20.563Z,11.18
2018-12-18T21:06:03.277Z,11.60
2018-12-18T21:08:08.093Z,11.85
2018-12-18T21:10:12.436Z,11.63
2018-12-18T21:12:16.273Z,12.30
2018-12-18T21:14:19.719Z,12.05
2018-12-18T21:16:24.016Z,12.23
2018-12-18T21:18:28.269Z,12.30
2018-12-18T21:20:32.203Z,11.18
2018-12-18T21:22:36.868Z,12.50
2018-12-18T21:24:40.416Z,11.13
2018-12-18T21:26:45.298Z,11.60
2018-12-18T21:28:56.109Z,11.30
2018-12-18T21:31:01.869Z,10.77
2018-12-18T21:33:05.822Z,10.50
2018-12-18T21:35:09.571Z,10.60
2018-12-18T21:37:14.697Z,9.93
2018-12-18T21:39:20.218Z,10.43
2018-12-18T21:41:23.885Z,9.20
2018-12-18T21:43:28.004Z,10.68
2018-12-18T21:45:32.084Z,9.30
2018-12-18T21:47:36.260Z,8.70
2018-12-18T21:49:40.592Z,9.48
2018-12-18T21:51:45.933Z,9.63
2018-12-18T21:53:49.221Z,8.90
2018-12-18T21:55:53.198Z,8.60
2018-12-18T21:57:57.174Z,7.95
2018-12-18T22:00:01.802Z,8.83
2018-12-18T22:02:06.801Z,8.30
2018-12-18T22:04:11.047Z,8.43
2018-12-18T22:06:17.404Z,8.40
2018-12-18T22:08:21.442Z,8.20
2018-12-18T22:10:25.954Z,7.87
2018-12-18T22:12:29.878Z,8.38
2018-12-18T22:14:33.954Z,8.35
2018-12-18T22:16:38.442Z,8.90
2018-12-18T22:18:42.202Z,9.10
2018-12-18T22:20:46.757Z,8.30
2018-12-18T22:22:51.165Z,8.48
2018-12-18T22:24:56.009Z,8.50
2018-12-18T22:27:00.195Z,8.63
2018-12-18T22:29:04.241Z,8.60
2018-12-18T22:31:07.451Z,7.60
2018-12-18T22:33:10.945Z,7.20
2018-12-18T22:35:15.232Z,8.18
2018-12-18T22:37:18.719Z,8.38
2018-12-18T22:39:22.228Z,8.43
2018-12-18T22:41:25.738Z,8.20
2018-12-18T22:43:28.931Z,8.57
2018-12-18T22:45:32.415Z,8.05
2018-12-18T22:47:35.996Z,8.40
2018-12-18T22:49:39.482Z,9.20
2018-12-18T22:51:42.968Z,8.93
2018-12-18T22:53:46.180Z,9.35
2018-12-18T22:55:49.374Z,9.50
2018-12-18T22:57:52.851Z,9.80
2018-12-18T22:59:57.683Z,9.90
2018-12-18T23:02:05.825Z,10.80
2018-12-18T23:04:09.309Z,10.30
2018-12-18T23:06:13.594Z,9.70
2018-12-18T23:08:17.417Z,10.93
2018-12-18T23:10:21.609Z,10.60
2018-12-18T23:12:25.193Z,10.60
2018-12-18T23:14:28.741Z,10.43
2018-12-18T23:16:32.821Z,11.40
2018-12-18T23:18:36.022Z,11.60
2018-12-18T23:20:40.020Z,11.55
2018-12-18T23:22:43.511Z,11.63
2018-12-18T23:24:47.006Z,12.07
2018-12-18T23:26:50.327Z,12.13
2018-12-18T23:28:53.827Z,13.10
2018-12-18T23:30:57.330Z,12.68
2018-12-18T23:33:01.129Z,13.08
2018-12-18T23:35:04.739Z,12.73
2018-12-18T23:37:08.246Z,12.73
2018-12-18T23:39:11.523Z,13.10
2018-12-18T23:41:15.658Z,11.78
2018-12-18T23:43:19.958Z,13.00
2018-12-18T23:45:24.247Z,13.45
2018-12-18T23:47:27.750Z,12.80
2018-12-18T23:49:30.934Z,13.20
2018-12-18T23:51:34.485Z,12.37
2018-12-18T23:53:37.980Z,12.85
2018-12-18T23:55:41.454Z,14.25
2018-12-18T23:57:44.977Z,13.88
2018-12-18T23:59:48.170Z,14.33
